Time;durP1;ratioP1;P1;durP2;ratioP2;P2;SDS_P1;SDS_P2;PMS_P1;PMS_P2;Temp;Humidity;BMP_temperature;BMP_pressure;BME280_temperature;BME280_humidity;BME280_pressure;Samples;Min_cycle;Max_cycle;Signal;HPM_P1;HPM_P2
2022/07/06 00:02:17;;;;;;;;;;;25.00;93.10;;;;;;5096456;28;20018;-60
2022/07/06 00:04:43;;;;;;;;;;;25.00;93.10;;;;;;5096520;28;19915;-61
2022/07/06 00:07:08;;;;;;;;;;;25.00;93.10;;;;;;5096125;28;19931;-61
2022/07/06 00:09:34;;;;;;;;;;;25.00;93.10;;;;;;5096094;28;19966;-60
2022/07/06 00:11:59;;;;;;;;;;;25.00;93.10;;;;;;5096475;28;19970;-60
2022/07/06 00:14:24;;;;;;;;;;;25.00;93.10;;;;;;5096242;28;19919;-60
2022/07/06 00:16:50;;;;;;;;;;;25.00;93.10;;;;;;5096223;28;19909;-60
2022/07/06 00:19:15;;;;;;;;;;;25.00;93.10;;;;;;5096135;28;20374;-60
2022/07/06 00:21:41;;;;;;;;;;;25.00;93.10;;;;;;5095911;28;19908;-60
2022/07/06 00:24:06;;;;;;;;;;;25.00;93.10;;;;;;5096225;28;19908;-60
2022/07/06 00:26:32;;;;;;;;;;;25.00;93.10;;;;;;5077949;28;19908;-60
2022/07/06 00:28:57;;;;;;;;;;;25.00;93.10;;;;;;5095757;28;19931;-61
2022/07/06 00:31:23;;;;;;;;;;;25.00;93.10;;;;;;5095658;28;19908;-60
2022/07/06 00:33:48;;;;;;;;;;;25.00;93.10;;;;;;5095909;28;19908;-60
2022/07/06 00:36:14;;;;;;;;;;;25.00;93.00;;;;;;5095865;28;19999;-60
2022/07/06 00:38:39;;;;;;;;;;;25.00;93.10;;;;;;5095360;28;19912;-61
2022/07/06 00:41:05;;;;;;;;;;;25.00;93.10;;;;;;5077680;28;19955;-60
2022/07/06 00:43:46;;;;;;;;;;;25.00;93.10;;;;;;5095807;28;19914;-60
2022/07/06 00:46:11;;;;;;;;;;;25.00;93.00;;;;;;5077623;28;20373;-60
2022/07/06 00:48:37;;;;;;;;;;;25.00;93.00;;;;;;5095321;28;19908;-61
2022/07/06 00:51:02;;;;;;;;;;;25.00;93.00;;;;;;5095037;28;20375;-61
2022/07/06 00:53:28;;;;;;;;;;;25.00;93.00;;;;;;5095527;28;19954;-61
2022/07/06 00:55:53;;;;;;;;;;;25.00;93.00;;;;;;5095505;28;19947;-60
2022/07/06 00:58:19;;;;;;;;;;;25.00;93.00;;;;;;5095388;28;19924;-60
2022/07/06 01:00:45;;;;;;;;;;;25.00;93.00;;;;;;5077136;28;19942;-60
2022/07/06 01:03:10;;;;;;;;;;;25.00;93.00;;;;;;5095259;28;19966;-60
2022/07/06 01:05:36;;;;;;;;;;;25.00;93.00;;;;;;5095087;28;19908;-60
2022/07/06 01:08:01;;;;;;;;;;;25.00;93.00;;;;;;5094919;28;20270;-60
2022/07/06 01:10:27;;;;;;;;;;;25.00;93.00;;;;;;5077017;28;19991;-60
2022/07/06 01:12:52;;;;;;;;;;;25.00;93.00;;;;;;5095148;28;20006;-60
2022/07/06 01:15:19;;;;;;;;;;;25.00;93.00;;;;;;5095488;28;19972;-61
2022/07/06 01:17:45;;;;;;;;;;;25.00;93.00;;;;;;5095067;28;19908;-60
2022/07/06 01:20:10;;;;;;;;;;;25.00;93.00;;;;;;5094967;28;20278;-61
2022/07/06 01:22:36;;;;;;;;;;;25.00;93.00;;;;;;5095248;28;20362;-61
2022/07/06 01:25:02;;;;;;;;;;;25.00;93.00;;;;;;5094836;28;20342;-60
2022/07/06 01:27:28;;;;;;;;;;;25.00;93.00;;;;;;5094627;28;19915;-60
2022/07/06 01:29:53;;;;;;;;;;;25.00;93.00;;;;;;5094730;28;19915;-60
2022/07/06 01:32:19;;;;;;;;;;;25.00;93.00;;;;;;5094849;28;20000;-61
2022/07/06 01:34:44;;;;;;;;;;;25.00;93.00;;;;;;5095109;28;20263;-60
2022/07/06 01:37:10;;;;;;;;;;;25.00;93.00;;;;;;5094753;28;19912;-61
2022/07/06 01:39:35;;;;;;;;;;;25.00;93.00;;;;;;5094279;28;19916;-60
2022/07/06 01:42:01;;;;;;;;;;;25.00;93.00;;;;;;5094290;28;20006;-60
2022/07/06 01:44:26;;;;;;;;;;;25.00;93.00;;;;;;5094315;28;19914;-60
2022/07/06 01:46:51;;;;;;;;;;;25.00;93.00;;;;;;5094241;28;19908;-61
2022/07/06 01:49:17;;;;;;;;;;;24.90;93.00;;;;;;5076249;28;20262;-60
2022/07/06 01:51:42;;;;;;;;;;;25.00;93.00;;;;;;5094138;28;19915;-61
2022/07/06 01:54:08;;;;;;;;;;;25.00;93.00;;;;;;5094553;28;19933;-61
2022/07/06 01:56:33;;;;;;;;;;;25.00;93.00;;;;;;5076278;28;19912;-60
2022/07/06 01:58:59;;;;;;;;;;;25.00;93.00;;;;;;5094300;28;19973;-61
2022/07/06 02:01:24;;;;;;;;;;;24.90;93.00;;;;;;5093864;28;19915;-60
2022/07/06 02:03:50;;;;;;;;;;;24.90;93.00;;;;;;5094039;28;19915;-61
2022/07/06 02:06:15;;;;;;;;;;;25.00;93.00;;;;;;5093975;28;19909;-60
2022/07/06 02:08:41;;;;;;;;;;;24.90;93.00;;;;;;5094194;28;20197;-60
2022/07/06 02:11:07;;;;;;;;;;;24.90;93.00;;;;;;5094028;28;20358;-59
2022/07/06 02:13:33;;;;;;;;;;;25.00;93.00;;;;;;5093735;28;19915;-60
2022/07/06 02:15:59;;;;;;;;;;;24.90;93.00;;;;;;5094172;28;19908;-60
2022/07/06 02:18:24;;;;;;;;;;;25.00;93.00;;;;;;5094086;28;19911;-60
2022/07/06 02:20:50;;;;;;;;;;;24.90;92.90;;;;;;5075881;28;19916;-60
2022/07/06 02:23:15;;;;;;;;;;;24.90;93.00;;;;;;5094149;28;19908;-60
2022/07/06 02:25:40;;;;;;;;;;;25.00;93.00;;;;;;5093789;28;20365;-60
2022/07/06 02:28:06;;;;;;;;;;;24.90;93.00;;;;;;5094041;28;19908;-60
2022/07/06 02:30:31;;;;;;;;;;;24.90;93.00;;;;;;5075928;28;19908;-60
2022/07/06 02:32:57;;;;;;;;;;;24.90;93.00;;;;;;5093791;28;20382;-61
2022/07/06 02:35:22;;;;;;;;;;;24.90;92.90;;;;;;5093793;28;19934;-60
2022/07/06 02:37:48;;;;;;;;;;;24.90;93.00;;;;;;5093728;28;19957;-61
2022/07/06 02:40:13;;;;;;;;;;;24.90;92.90;;;;;;5093608;28;19924;-61
2022/07/06 02:42:39;;;;;;;;;;;24.90;93.00;;;;;;5093542;28;19912;-61
2022/07/06 02:45:05;;;;;;;;;;;24.90;92.90;;;;;;5075784;28;19908;-61
2022/07/06 02:47:31;;;;;;;;;;;24.90;92.90;;;;;;5093795;28;19909;-61
2022/07/06 02:49:56;;;;;;;;;;;24.90;92.90;;;;;;5093927;28;19908;-60
2022/07/06 02:52:22;;;;;;;;;;;24.90;92.90;;;;;;5093574;28;19915;-60
2022/07/06 02:54:48;;;;;;;;;;;24.90;92.90;;;;;;5094123;28;19962;-60
2022/07/06 02:57:14;;;;;;;;;;;24.90;92.90;;;;;;5093460;28;20401;-60
2022/07/06 02:59:40;;;;;;;;;;;24.90;92.90;;;;;;5093527;28;19920;-60
2022/07/06 03:02:05;;;;;;;;;;;25.00;93.00;;;;;;5093826;28;20331;-60
2022/07/06 03:04:31;;;;;;;;;;;24.90;92.90;;;;;;5093424;28;20358;-60
2022/07/06 03:06:57;;;;;;;;;;;24.90;92.90;;;;;;5093518;28;20247;-60
2022/07/06 03:09:22;;;;;;;;;;;24.90;92.90;;;;;;5093371;28;19912;-60
2022/07/06 03:11:48;;;;;;;;;;;24.90;92.90;;;;;;5093694;28;19908;-61
2022/07/06 03:14:13;;;;;;;;;;;24.90;92.90;;;;;;5096729;28;19908;-60
2022/07/06 03:16:39;;;;;;;;;;;24.90;92.90;;;;;;5097092;28;20355;-60
2022/07/06 03:19:04;;;;;;;;;;;24.90;92.90;;;;;;5097565;28;19955;-60
2022/07/06 03:21:30;;;;;;;;;;;24.90;93.00;;;;;;5078842;28;19908;-61
2022/07/06 03:23:55;;;;;;;;;;;24.90;92.90;;;;;;5097610;28;19908;-60
2022/07/06 03:26:21;;;;;;;;;;;24.90;92.90;;;;;;5097128;28;19961;-61
2022/07/06 03:28:46;;;;;;;;;;;24.90;92.90;;;;;;5096839;28;20011;-61
2022/07/06 03:31:12;;;;;;;;;;;24.90;92.90;;;;;;5096887;28;19956;-60
2022/07/06 03:33:37;;;;;;;;;;;24.90;92.90;;;;;;5096672;28;19961;-60
2022/07/06 03:36:04;;;;;;;;;;;24.90;93.00;;;;;;5096975;28;20256;-60
2022/07/06 03:38:30;;;;;;;;;;;24.90;92.90;;;;;;5078700;28;20370;-61
2022/07/06 03:40:55;;;;;;;;;;;24.90;93.00;;;;;;5096830;28;19915;-60
2022/07/06 03:43:21;;;;;;;;;;;24.90;93.00;;;;;;5096616;28;19961;-59
2022/07/06 03:45:46;;;;;;;;;;;24.90;93.00;;;;;;5096797;28;19908;-60
2022/07/06 03:48:12;;;;;;;;;;;24.90;92.90;;;;;;5096741;28;19916;-60
2022/07/06 03:50:37;;;;;;;;;;;24.90;92.90;;;;;;5096484;28;19912;-60
2022/07/06 03:53:03;;;;;;;;;;;24.90;92.90;;;;;;5096482;28;19908;-60
2022/07/06 03:55:28;;;;;;;;;;;24.90;93.00;;;;;;5096357;28;20328;-60
2022/07/06 03:57:54;;;;;;;;;;;24.90;92.90;;;;;;5096780;28;19920;-60
2022/07/06 04:00:19;;;;;;;;;;;24.90;92.90;;;;;;5096527;28;19943;-60
2022/07/06 04:02:45;;;;;;;;;;;24.90;92.90;;;;;;5096077;28;19961;-61
2022/07/06 04:05:10;;;;;;;;;;;25.00;93.00;;;;;;5096148;28;20270;-60
2022/07/06 04:07:36;;;;;;;;;;;24.90;93.00;;;;;;5096167;28;19934;-60
2022/07/06 04:10:01;;;;;;;;;;;24.90;93.00;;;;;;5096117;28;19908;-60
2022/07/06 04:12:27;;;;;;;;;;;24.90;93.00;;;;;;5096351;28;20262;-60
2022/07/06 04:14:52;;;;;;;;;;;25.00;93.00;;;;;;5096136;28;19915;-60
2022/07/06 04:20:02;;;;;;;;;;;25.00;93.00;;;;;;5095815;28;20279;-60
2022/07/06 04:22:27;;;;;;;;;;;25.00;93.00;;;;;;5095729;28;19908;-60
2022/07/06 04:24:53;;;;;;;;;;;25.00;93.00;;;;;;5095521;28;19908;-60
2022/07/06 04:27:19;;;;;;;;;;;25.00;93.00;;;;;;5095797;28;20351;-60
2022/07/06 04:29:44;;;;;;;;;;;25.00;93.00;;;;;;5095786;28;20301;-60
2022/07/06 04:32:09;;;;;;;;;;;25.00;93.00;;;;;;5077629;28;20359;-60
2022/07/06 04:34:35;;;;;;;;;;;25.00;92.90;;;;;;5095916;28;19908;-60
2022/07/06 04:37:00;;;;;;;;;;;25.00;92.90;;;;;;5095487;28;20351;-61
2022/07/06 04:39:27;;;;;;;;;;;25.00;92.90;;;;;;5095687;28;19923;-60
2022/07/06 04:41:53;;;;;;;;;;;24.90;92.90;;;;;;5095389;28;19908;-60
2022/07/06 04:44:18;;;;;;;;;;;25.00;92.90;;;;;;5095544;28;20244;-60
2022/07/06 04:46:44;;;;;;;;;;;24.90;92.90;;;;;;5095722;28;20045;-60
2022/07/06 04:49:09;;;;;;;;;;;24.90;92.90;;;;;;5095597;28;19920;-60
2022/07/06 04:51:35;;;;;;;;;;;24.90;92.90;;;;;;5095599;28;20000;-61
2022/07/06 04:54:00;;;;;;;;;;;24.90;92.90;;;;;;5095386;28;19912;-61
2022/07/06 04:56:25;;;;;;;;;;;24.90;92.90;;;;;;5095209;28;19961;-61
2022/07/06 04:58:51;;;;;;;;;;;24.90;92.90;;;;;;5095402;28;19924;-61
2022/07/06 05:01:16;;;;;;;;;;;24.90;92.90;;;;;;5095352;28;19916;-60
2022/07/06 05:03:42;;;;;;;;;;;24.90;92.90;;;;;;5095431;28;19908;-61
2022/07/06 05:06:07;;;;;;;;;;;24.90;92.90;;;;;;5094992;28;19915;-61
2022/07/06 05:08:33;;;;;;;;;;;24.90;93.00;;;;;;5094718;28;20059;-61
2022/07/06 05:10:59;;;;;;;;;;;24.90;93.00;;;;;;5095417;28;19909;-61
2022/07/06 05:13:25;;;;;;;;;;;24.90;93.00;;;;;;5094535;28;19933;-61
2022/07/06 05:15:50;;;;;;;;;;;24.90;93.00;;;;;;5094675;28;19993;-61
2022/07/06 05:18:15;;;;;;;;;;;24.90;93.00;;;;;;5094638;28;19912;-61
2022/07/06 05:20:41;;;;;;;;;;;24.90;93.00;;;;;;5094372;28;20219;-61
2022/07/06 05:23:06;;;;;;;;;;;25.00;93.00;;;;;;5094382;28;19912;-61
2022/07/06 05:25:32;;;;;;;;;;;25.00;93.00;;;;;;5094433;28;19912;-60
2022/07/06 05:27:58;;;;;;;;;;;25.00;93.00;;;;;;5094893;28;19951;-60
2022/07/06 05:30:24;;;;;;;;;;;25.00;93.00;;;;;;5095051;28;19955;-60
2022/07/06 05:32:49;;;;;;;;;;;25.00;93.00;;;;;;5076397;28;20336;-61
2022/07/06 05:35:16;;;;;;;;;;;25.00;93.00;;;;;;5076283;28;19912;-60
2022/07/06 05:37:41;;;;;;;;;;;25.00;93.00;;;;;;5093189;28;20382;-61
2022/07/06 05:40:07;;;;;;;;;;;25.10;93.00;;;;;;5094379;28;19912;-60
2022/07/06 05:42:32;;;;;;;;;;;25.00;93.00;;;;;;5094069;28;19962;-60
2022/07/06 05:44:58;;;;;;;;;;;25.10;93.00;;;;;;5093884;28;19915;-60
2022/07/06 05:50:14;;;;;;;;;;;25.00;92.90;;;;;;5093844;28;19915;-61
2022/07/06 05:52:40;;;;;;;;;;;25.00;93.00;;;;;;5094054;28;20033;-60
2022/07/06 05:55:06;;;;;;;;;;;25.00;93.00;;;;;;5075537;28;20010;-61
2022/07/06 05:57:31;;;;;;;;;;;25.00;93.00;;;;;;5093723;28;19956;-60
2022/07/06 05:59:57;;;;;;;;;;;25.00;93.00;;;;;;5093931;28;19964;-60
2022/07/06 06:02:22;;;;;;;;;;;25.00;93.00;;;;;;5093824;28;19916;-59
2022/07/06 06:04:48;;;;;;;;;;;25.00;93.00;;;;;;5094022;28;19969;-61
2022/07/06 06:07:13;;;;;;;;;;;25.00;93.00;;;;;;5093707;28;19941;-60
2022/07/06 06:09:39;;;;;;;;;;;25.00;93.00;;;;;;5094238;28;19962;-60
2022/07/06 06:12:04;;;;;;;;;;;25.00;93.00;;;;;;5094045;28;20346;-61
2022/07/06 06:14:30;;;;;;;;;;;25.00;93.00;;;;;;5093852;28;19925;-60
2022/07/06 06:16:55;;;;;;;;;;;25.00;93.00;;;;;;5093528;28;20023;-60
2022/07/06 06:19:21;;;;;;;;;;;25.00;93.00;;;;;;5093820;28;20011;-60
2022/07/06 06:21:46;;;;;;;;;;;25.00;92.90;;;;;;5075713;28;20351;-59
2022/07/06 06:24:12;;;;;;;;;;;25.00;93.00;;;;;;5075647;28;19963;-60
2022/07/06 06:26:37;;;;;;;;;;;25.00;92.90;;;;;;5093369;28;19909;-60
2022/07/06 06:29:03;;;;;;;;;;;25.00;93.00;;;;;;5093459;28;19908;-60
2022/07/06 06:31:28;;;;;;;;;;;25.00;93.00;;;;;;5093913;28;19953;-60
2022/07/06 06:33:54;;;;;;;;;;;25.00;92.90;;;;;;5075335;28;19968;-60
2022/07/06 06:36:19;;;;;;;;;;;25.00;93.00;;;;;;5093474;28;19942;-60
2022/07/06 06:38:45;;;;;;;;;;;25.00;93.00;;;;;;5093548;28;20314;-60
2022/07/06 06:41:10;;;;;;;;;;;25.00;93.00;;;;;;5075333;28;19977;-60
2022/07/06 06:43:35;;;;;;;;;;;25.00;92.90;;;;;;5093509;28;19915;-60
2022/07/06 06:46:01;;;;;;;;;;;25.00;92.90;;;;;;5093238;28;19915;-61
2022/07/06 06:48:26;;;;;;;;;;;25.00;93.00;;;;;;5095794;28;19916;-59
2022/07/06 06:50:52;;;;;;;;;;;25.00;93.00;;;;;;5097589;28;20304;-60
2022/07/06 06:53:17;;;;;;;;;;;25.00;93.00;;;;;;5097029;28;19908;-60
2022/07/06 06:55:43;;;;;;;;;;;25.00;93.00;;;;;;5097376;28;19908;-60
2022/07/06 06:58:08;;;;;;;;;;;25.00;93.00;;;;;;5097387;28;20370;-60
2022/07/06 07:00:34;;;;;;;;;;;25.00;93.00;;;;;;5096935;28;19912;-60
2022/07/06 07:02:59;;;;;;;;;;;25.00;93.00;;;;;;5097062;28;19930;-60
2022/07/06 07:05:25;;;;;;;;;;;25.00;92.90;;;;;;5078962;28;19915;-61
2022/07/06 07:07:50;;;;;;;;;;;25.00;92.90;;;;;;5078946;28;19915;-60
2022/07/06 07:10:16;;;;;;;;;;;25.00;92.90;;;;;;5097205;28;19908;-60
2022/07/06 07:12:42;;;;;;;;;;;25.00;92.90;;;;;;5097151;28;19908;-61
2022/07/06 07:15:07;;;;;;;;;;;25.00;93.00;;;;;;5096921;28;20313;-60
2022/07/06 07:17:33;;;;;;;;;;;25.00;92.90;;;;;;5096962;28;19998;-60
2022/07/06 07:19:58;;;;;;;;;;;25.00;92.90;;;;;;5096766;28;19916;-60
2022/07/06 07:22:24;;;;;;;;;;;25.00;92.90;;;;;;5078783;28;19927;-60
2022/07/06 07:24:49;;;;;;;;;;;25.00;92.90;;;;;;5096902;28;19912;-60
2022/07/06 07:27:15;;;;;;;;;;;25.00;92.90;;;;;;5096854;28;19908;-60
2022/07/06 07:29:40;;;;;;;;;;;25.00;92.90;;;;;;5096953;28;20342;-60
2022/07/06 07:32:06;;;;;;;;;;;25.00;92.90;;;;;;5096753;28;19926;-60
2022/07/06 07:34:31;;;;;;;;;;;25.00;92.90;;;;;;5096540;28;19912;-60
2022/07/06 07:36:57;;;;;;;;;;;25.00;92.90;;;;;;5096408;28;20211;-60
2022/07/06 07:39:22;;;;;;;;;;;25.00;92.90;;;;;;5078172;28;19916;-60
2022/07/06 07:41:50;;;;;;;;;;;25.00;92.90;;;;;;5096670;28;19919;-60
2022/07/06 07:44:15;;;;;;;;;;;25.00;92.90;;;;;;5097025;28;20330;-60
2022/07/06 07:46:41;;;;;;;;;;;25.00;92.90;;;;;;5096856;28;20025;-60
2022/07/06 07:49:07;;;;;;;;;;;25.00;92.90;;;;;;5096410;28;19908;-61
2022/07/06 07:51:33;;;;;;;;;;;25.10;92.90;;;;;;5096638;28;20381;-61
2022/07/06 07:53:58;;;;;;;;;;;25.00;92.90;;;;;;5096194;28;19951;-60
2022/07/06 07:56:23;;;;;;;;;;;25.00;92.90;;;;;;5096633;28;19998;-61
2022/07/06 07:58:49;;;;;;;;;;;25.00;92.90;;;;;;5096217;28;19967;-60
2022/07/06 08:01:14;;;;;;;;;;;25.00;92.90;;;;;;5095666;28;19912;-60
2022/07/06 08:03:40;;;;;;;;;;;25.00;92.90;;;;;;5096340;28;19909;-61
2022/07/06 08:06:05;;;;;;;;;;;25.00;92.90;;;;;;5078050;28;19912;-60
2022/07/06 08:08:31;;;;;;;;;;;25.00;92.80;;;;;;5096182;28;19961;-61
2022/07/06 08:10:56;;;;;;;;;;;25.00;92.90;;;;;;5095984;28;20276;-60
2022/07/06 08:13:22;;;;;;;;;;;25.10;92.90;;;;;;5096135;28;19955;-60
2022/07/06 08:15:47;;;;;;;;;;;25.00;92.80;;;;;;5095929;28;19923;-60
2022/07/06 08:18:13;;;;;;;;;;;25.00;92.80;;;;;;5077616;28;20351;-60
2022/07/06 08:20:38;;;;;;;;;;;25.00;92.80;;;;;;5096025;28;19934;-60
2022/07/06 08:23:04;;;;;;;;;;;25.00;92.80;;;;;;5077921;28;19912;-61
2022/07/06 08:25:30;;;;;;;;;;;25.00;92.80;;;;;;5096197;28;20015;-60
2022/07/06 08:27:56;;;;;;;;;;;25.00;92.80;;;;;;5095707;28;19915;-60
2022/07/06 08:30:21;;;;;;;;;;;25.00;92.80;;;;;;5077850;28;19912;-60
2022/07/06 08:32:47;;;;;;;;;;;25.00;92.80;;;;;;5095869;28;19908;-60
2022/07/06 08:35:12;;;;;;;;;;;25.10;92.80;;;;;;5095151;28;19977;-60
2022/07/06 08:37:38;;;;;;;;;;;25.00;92.80;;;;;;5095523;28;19958;-60
2022/07/06 08:40:04;;;;;;;;;;;25.00;92.80;;;;;;5095396;28;20358;-60
2022/07/06 08:42:31;;;;;;;;;;;25.00;92.80;;;;;;5095868;28;19950;-60
2022/07/06 08:45:01;;;;;;;;;;;25.00;92.80;;;;;;5095344;28;19947;-60
2022/07/06 08:47:27;;;;;;;;;;;25.10;92.90;;;;;;5095070;28;19908;-60
2022/07/06 08:49:53;;;;;;;;;;;25.00;92.80;;;;;;5095184;28;19908;-61
2022/07/06 08:52:19;;;;;;;;;;;25.10;92.80;;;;;;5094959;28;19908;-61
2022/07/06 08:54:45;;;;;;;;;;;25.00;92.80;;;;;;5095150;28;19912;-60
2022/07/06 08:57:10;;;;;;;;;;;25.00;92.80;;;;;;5094741;28;19908;-60
2022/07/06 08:59:38;;;;;;;;;;;25.10;92.80;;;;;;5094740;28;19912;-60
2022/07/06 09:02:03;;;;;;;;;;;25.00;92.80;;;;;;5076770;28;20283;-60
2022/07/06 09:04:29;;;;;;;;;;;25.10;92.90;;;;;;5095179;28;20489;-60
2022/07/06 09:06:55;;;;;;;;;;;25.00;92.80;;;;;;5094436;28;19916;-61
2022/07/06 09:09:22;;;;;;;;;;;25.10;92.80;;;;;;5094719;28;19915;-61
2022/07/06 09:11:48;;;;;;;;;;;25.10;92.70;;;;;;5094664;28;19908;-61
2022/07/06 09:14:14;;;;;;;;;;;25.10;92.70;;;;;;5095108;28;19970;-61
2022/07/06 09:16:39;;;;;;;;;;;25.10;92.70;;;;;;5094969;28;19912;-61
2022/07/06 09:19:09;;;;;;;;;;;25.10;92.80;;;;;;5094835;28;19912;-61
2022/07/06 09:21:39;;;;;;;;;;;25.10;92.80;;;;;;5094521;28;19912;-61
2022/07/06 09:24:11;;;;;;;;;;;25.10;92.80;;;;;;5094798;28;19908;-61
2022/07/06 09:26:37;;;;;;;;;;;25.10;92.70;;;;;;5094675;28;19908;-61
2022/07/06 09:29:04;;;;;;;;;;;25.10;92.70;;;;;;5094608;28;19951;-61
2022/07/06 09:31:29;;;;;;;;;;;25.10;92.70;;;;;;5094742;28;20014;-61
2022/07/06 09:33:55;;;;;;;;;;;25.10;92.70;;;;;;5094682;28;19912;-61
2022/07/06 09:36:37;;;;;;;;;;;25.10;92.70;;;;;;5094563;28;19946;-61
2022/07/06 09:39:14;;;;;;;;;;;25.10;92.70;;;;;;5094352;28;20001;-61
2022/07/06 09:41:40;;;;;;;;;;;25.10;92.70;;;;;;5076178;28;20355;-61
2022/07/06 09:44:06;;;;;;;;;;;25.10;92.70;;;;;;5094595;28;19909;-60
2022/07/06 09:46:37;;;;;;;;;;;25.10;92.80;;;;;;5094225;28;19953;-60
2022/07/06 09:49:03;;;;;;;;;;;25.10;92.80;;;;;;5094179;28;19908;-61
2022/07/06 09:51:31;;;;;;;;;;;25.10;92.80;;;;;;5094546;28;20269;-60
2022/07/06 09:53:58;;;;;;;;;;;25.10;92.80;;;;;;5093757;28;19908;-60
2022/07/06 09:56:40;;;;;;;;;;;25.10;92.80;;;;;;5076195;28;20272;-61
2022/07/06 09:59:09;;;;;;;;;;;25.10;92.60;;;;;;5093278;28;20412;-61
2022/07/06 10:01:35;;;;;;;;;;;25.10;92.60;;;;;;5094005;28;19908;-60
2022/07/06 10:04:00;;;;;;;;;;;25.00;92.60;;;;;;5076022;28;19939;-60
2022/07/06 10:06:26;;;;;;;;;;;25.10;92.70;;;;;;5075742;28;19908;-60
2022/07/06 10:08:53;;;;;;;;;;;25.10;92.70;;;;;;5093834;28;19962;-60
2022/07/06 10:11:19;;;;;;;;;;;25.10;92.70;;;;;;5093825;28;19908;-61
2022/07/06 10:13:46;;;;;;;;;;;25.10;92.70;;;;;;5093621;28;19912;-61
2022/07/06 10:16:12;;;;;;;;;;;25.10;92.70;;;;;;5093664;28;19908;-61
2022/07/06 10:18:37;;;;;;;;;;;25.10;92.70;;;;;;5094013;28;19908;-61
2022/07/06 10:21:03;;;;;;;;;;;25.10;92.70;;;;;;5093768;28;19916;-60
2022/07/06 10:23:29;;;;;;;;;;;25.10;92.70;;;;;;5093215;28;19915;-61
2022/07/06 10:25:56;;;;;;;;;;;25.10;92.70;;;;;;5093722;28;19931;-61
2022/07/06 10:28:22;;;;;;;;;;;25.10;92.70;;;;;;5093701;28;19915;-61
2022/07/06 10:30:48;;;;;;;;;;;25.10;92.70;;;;;;5094065;28;19908;-61
2022/07/06 10:33:14;;;;;;;;;;;25.10;92.70;;;;;;5093357;28;19908;-61
2022/07/06 10:35:40;;;;;;;;;;;25.10;92.60;;;;;;5093848;28;20354;-62
2022/07/06 10:38:10;;;;;;;;;;;25.10;92.60;;;;;;5093658;28;20289;-61
2022/07/06 10:43:44;;;;;;;;;;;25.10;92.70;;;;;;5031086;28;20393;-60
2022/07/06 10:46:11;;;;;;;;;;;25.10;92.70;;;;;;5031210;28;20426;-60
2022/07/06 10:48:37;;;;;;;;;;;25.10;92.70;;;;;;5061727;28;19914;-61
2022/07/06 10:51:04;;;;;;;;;;;25.10;92.70;;;;;;5075499;28;19908;-61
2022/07/06 10:53:34;;;;;;;;;;;25.10;92.70;;;;;;5075302;28;19912;-61
2022/07/06 10:56:02;;;;;;;;;;;25.10;92.70;;;;;;5093616;28;20003;-61
2022/07/06 10:58:34;;;;;;;;;;;25.10;92.70;;;;;;5075082;28;19920;-62
2022/07/06 11:01:00;;;;;;;;;;;25.10;92.70;;;;;;5075227;28;19927;-61
2022/07/06 11:03:32;;;;;;;;;;;25.00;92.70;;;;;;5075808;28;19913;-61
2022/07/06 11:05:58;;;;;;;;;;;25.10;92.70;;;;;;5093650;28;20367;-61
2022/07/06 11:08:41;;;;;;;;;;;25.10;92.70;;;;;;5093476;28;20369;-61
2022/07/06 11:11:25;;;;;;;;;;;25.10;92.70;;;;;;5093236;28;19978;-61
2022/07/06 11:13:55;;;;;;;;;;;25.10;92.70;;;;;;5093346;28;19915;-61
2022/07/06 11:16:22;;;;;;;;;;;25.10;92.70;;;;;;5092922;28;19946;-61
2022/07/06 11:18:49;;;;;;;;;;;25.10;92.70;;;;;;5092753;28;20285;-61
2022/07/06 11:21:15;;;;;;;;;;;25.10;92.70;;;;;;5093167;28;19995;-61
2022/07/06 11:23:41;;;;;;;;;;;25.10;92.70;;;;;;5093135;28;19914;-61
2022/07/06 11:26:07;;;;;;;;;;;25.10;92.70;;;;;;5092973;28;19909;-61
2022/07/06 11:28:33;;;;;;;;;;;25.10;92.70;;;;;;5093320;28;19908;-60
2022/07/06 11:30:59;;;;;;;;;;;25.10;92.70;;;;;;5093030;28;20275;-60
2022/07/06 11:33:31;;;;;;;;;;;25.10;92.70;;;;;;5093207;28;19915;-61
2022/07/06 11:36:15;;;;;;;;;;;25.10;92.70;;;;;;5095419;28;20399;-60
2022/07/06 11:38:41;;;;;;;;;;;25.10;92.70;;;;;;5096344;28;20036;-61
2022/07/06 11:41:06;;;;;;;;;;;25.10;92.70;;;;;;5096542;28;20014;-61
2022/07/06 11:43:32;;;;;;;;;;;25.10;92.70;;;;;;5096366;28;19991;-61
2022/07/06 11:45:57;;;;;;;;;;;25.10;92.70;;;;;;5096230;28;19908;-60
2022/07/06 11:48:23;;;;;;;;;;;25.10;92.70;;;;;;5096545;28;20367;-60
2022/07/06 11:50:58;;;;;;;;;;;25.10;92.70;;;;;;5096521;28;20002;-61
2022/07/06 11:53:24;;;;;;;;;;;25.10;92.60;;;;;;5096571;28;19908;-60
2022/07/06 11:55:49;;;;;;;;;;;25.10;92.60;;;;;;5096407;28;19919;-60
2022/07/06 11:58:16;;;;;;;;;;;25.10;92.60;;;;;;5096164;28;19927;-61
2022/07/06 12:00:41;;;;;;;;;;;25.10;92.60;;;;;;5096216;28;19916;-60
2022/07/06 12:03:07;;;;;;;;;;;25.10;92.60;;;;;;5096523;28;20003;-61
2022/07/06 12:05:32;;;;;;;;;;;25.10;92.60;;;;;;5096299;28;19908;-60
2022/07/06 12:08:08;;;;;;;;;;;25.10;92.60;;;;;;5096176;28;20404;-60
2022/07/06 12:10:35;;;;;;;;;;;25.10;92.60;;;;;;5096555;28;19999;-61
2022/07/06 12:13:04;;;;;;;;;;;25.10;92.60;;;;;;5077756;28;19959;-61
2022/07/06 12:15:29;;;;;;;;;;;25.00;92.50;;;;;;5096117;28;19963;-61
2022/07/06 12:17:55;;;;;;;;;;;25.10;92.60;;;;;;5077716;28;20354;-62
2022/07/06 12:20:21;;;;;;;;;;;25.10;92.60;;;;;;5095929;28;19920;-62
2022/07/06 12:22:46;;;;;;;;;;;25.10;92.60;;;;;;5096039;28;19909;-62
2022/07/06 12:25:11;;;;;;;;;;;25.10;92.50;;;;;;5095903;28;20003;-62
2022/07/06 12:27:37;;;;;;;;;;;25.10;92.50;;;;;;5095647;28;19961;-62
2022/07/06 12:30:10;;;;;;;;;;;25.10;92.50;;;;;;5095654;28;20255;-62
2022/07/06 12:32:36;;;;;;;;;;;25.10;92.50;;;;;;5095459;28;20367;-61
2022/07/06 12:35:03;;;;;;;;;;;25.00;92.50;;;;;;5095885;28;19908;-61
2022/07/06 12:37:28;;;;;;;;;;;25.10;92.50;;;;;;5095330;28;20397;-61
2022/07/06 12:39:54;;;;;;;;;;;25.10;92.50;;;;;;5095695;28;19916;-62
2022/07/06 12:42:20;;;;;;;;;;;25.10;92.50;;;;;;5095644;28;19912;-61
2022/07/06 12:44:49;;;;;;;;;;;25.10;92.50;;;;;;5095295;28;19908;-62
2022/07/06 12:47:18;;;;;;;;;;;25.10;92.50;;;;;;5094774;28;20422;-62
2022/07/06 12:49:44;;;;;;;;;;;25.10;92.50;;;;;;5095167;28;20354;-61
2022/07/06 12:52:11;;;;;;;;;;;25.00;92.50;;;;;;5095207;28;20042;-61
2022/07/06 12:54:40;;;;;;;;;;;25.10;92.70;;;;;;5095260;28;19931;-62
2022/07/06 12:57:07;;;;;;;;;;;25.10;92.50;;;;;;5094896;28;19930;-61
2022/07/06 12:59:34;;;;;;;;;;;25.00;92.40;;;;;;5095194;28;19916;-61
2022/07/06 13:01:59;;;;;;;;;;;25.10;92.50;;;;;;5095036;28;20300;-61
2022/07/06 13:04:26;;;;;;;;;;;25.10;92.50;;;;;;5094978;28;20427;-61
2022/07/06 13:06:52;;;;;;;;;;;25.10;92.50;;;;;;5094710;28;20404;-61
2022/07/06 13:09:18;;;;;;;;;;;25.10;92.50;;;;;;5094813;28;19912;-62
2022/07/06 13:11:45;;;;;;;;;;;25.10;92.50;;;;;;5076797;28;19934;-61
2022/07/06 13:14:10;;;;;;;;;;;25.10;92.40;;;;;;5094450;28;20079;-61
2022/07/06 13:16:36;;;;;;;;;;;25.00;92.40;;;;;;5094480;28;19947;-61
2022/07/06 13:19:02;;;;;;;;;;;25.10;92.40;;;;;;5094653;28;19961;-61
2022/07/06 13:21:27;;;;;;;;;;;25.00;92.30;;;;;;5076354;28;19912;-62
2022/07/06 13:23:53;;;;;;;;;;;25.10;92.40;;;;;;5094308;28;20278;-61
2022/07/06 13:26:18;;;;;;;;;;;25.10;92.40;;;;;;5094252;28;19915;-62
2022/07/06 13:28:44;;;;;;;;;;;25.10;92.40;;;;;;5094418;28;19915;-60
2022/07/06 13:31:09;;;;;;;;;;;25.10;92.40;;;;;;5094241;28;19912;-61
2022/07/06 13:33:35;;;;;;;;;;;25.10;92.40;;;;;;5094188;28;19915;-60
2022/07/06 13:36:00;;;;;;;;;;;25.10;92.40;;;;;;5094630;28;20304;-61
2022/07/06 13:38:26;;;;;;;;;;;25.10;92.40;;;;;;5094045;28;20003;-61
2022/07/06 13:40:51;;;;;;;;;;;25.10;92.40;;;;;;5094467;28;19938;-60
2022/07/06 13:43:17;;;;;;;;;;;25.10;92.40;;;;;;5094338;28;20376;-61
2022/07/06 13:45:43;;;;;;;;;;;25.10;92.40;;;;;;5093923;28;19961;-60
2022/07/06 13:48:08;;;;;;;;;;;25.10;92.40;;;;;;5094252;28;19995;-62
2022/07/06 13:50:34;;;;;;;;;;;25.10;92.40;;;;;;5094069;28;19908;-61
2022/07/06 13:52:59;;;;;;;;;;;25.00;92.40;;;;;;5093804;28;19979;-61
2022/07/06 13:55:25;;;;;;;;;;;25.10;92.40;;;;;;5093802;28;19908;-60
2022/07/06 13:57:51;;;;;;;;;;;25.10;92.60;;;;;;5093530;28;19928;-61
2022/07/06 14:00:18;;;;;;;;;;;25.10;92.40;;;;;;5093743;28;20275;-61
2022/07/06 14:02:46;;;;;;;;;;;25.10;92.40;;;;;;5094037;28;19908;-61
2022/07/06 14:05:12;;;;;;;;;;;25.10;92.40;;;;;;5093673;28;19908;-61
2022/07/06 14:07:37;;;;;;;;;;;25.10;92.40;;;;;;5093971;28;19954;-62
2022/07/06 14:10:03;;;;;;;;;;;25.10;92.40;;;;;;5093512;28;20007;-61
2022/07/06 14:12:28;;;;;;;;;;;25.10;92.40;;;;;;5093170;28;19908;-61
2022/07/06 14:14:54;;;;;;;;;;;25.10;92.40;;;;;;5093294;28;19997;-60
2022/07/06 14:17:19;;;;;;;;;;;25.10;92.40;;;;;;5093065;28;19912;-62
2022/07/06 14:19:45;;;;;;;;;;;25.10;92.40;;;;;;5093481;28;19942;-61